createdAt,value
2019-04-29T00:04:20.151Z,1.13
2019-04-29T00:09:36.276Z,2.37
2019-04-29T00:14:58.857Z,1.37
2019-04-29T00:20:23.756Z,1.97
2019-04-29T00:25:40.752Z,1.87
2019-04-29T00:30:56.536Z,1.20
2019-04-29T00:36:12.270Z,1.30
2019-04-29T00:41:44.473Z,1.57
2019-04-29T00:47:00.113Z,1.20
2019-04-29T00:52:15.781Z,1.40
2019-04-29T00:57:31.448Z,1.43
2019-04-29T01:02:47.097Z,1.83
2019-04-29T01:08:03.282Z,1.20
2019-04-29T01:13:19.278Z,1.20
2019-04-29T01:18:35.077Z,1.40
2019-04-29T01:23:50.826Z,1.00
2019-04-29T01:29:07.558Z,1.93
2019-04-29T01:34:28.341Z,1.00
2019-04-29T01:39:49.559Z,1.50
2019-04-29T01:45:05.548Z,1.10
2019-04-29T01:50:21.259Z,2.43
2019-04-29T01:55:37.048Z,1.00
2019-04-29T02:00:52.794Z,1.13
2019-04-29T02:06:08.533Z,1.10
2019-04-29T02:11:24.586Z,3.10
2019-04-29T02:16:40.594Z,1.10
2019-04-29T02:22:19.822Z,1.17
2019-04-29T02:27:35.458Z,1.40
2019-04-29T02:32:51.227Z,3.13
2019-04-29T02:38:08.690Z,1.33
2019-04-29T02:43:27.329Z,1.30
2019-04-29T02:48:43.435Z,1.43
2019-04-29T02:53:59.076Z,1.20
2019-04-29T02:59:17.383Z,1.50
2019-04-29T03:04:40.265Z,1.50
2019-04-29T03:09:56.497Z,2.00
2019-04-29T03:15:13.064Z,1.33
2019-04-29T03:20:34.676Z,3.53
2019-04-29T03:25:50.500Z,1.50
2019-04-29T03:31:06.610Z,1.83
2019-04-29T03:36:22.672Z,1.87
2019-04-29T03:41:38.282Z,2.23
2019-04-29T03:46:53.987Z,1.50
2019-04-29T03:52:10.312Z,2.47
2019-04-29T03:57:26.285Z,1.53
2019-04-29T04:03:06.065Z,2.10
2019-04-29T04:08:26.655Z,2.00
2019-04-29T04:13:42.059Z,1.57
2019-04-29T04:19:08.985Z,2.77
2019-04-29T04:24:24.966Z,4.03
2019-04-29T04:29:41.000Z,2.97
2019-04-29T04:34:56.782Z,1.83
2019-04-29T04:40:15.115Z,4.47
2019-04-29T04:45:31.064Z,3.50
2019-04-29T04:50:46.681Z,2.17
2019-04-29T04:56:02.793Z,3.87
2019-04-29T05:01:18.395Z,2.07
2019-04-29T05:06:35.156Z,3.67
2019-04-29T05:11:50.983Z,3.70
2019-04-29T05:17:06.745Z,4.57
2019-04-29T05:22:24.220Z,2.83
2019-04-29T05:27:39.902Z,2.30
2019-04-29T05:32:55.714Z,3.30
2019-04-29T05:38:30.422Z,4.70
2019-04-29T05:43:59.069Z,7.43
2019-04-29T05:49:20.111Z,7.23
2019-04-29T05:54:36.433Z,3.63
2019-04-29T05:59:52.353Z,4.97
2019-04-29T06:05:08.334Z,4.57
2019-04-29T06:10:24.794Z,4.10
2019-04-29T06:15:40.789Z,3.67
2019-04-29T06:21:08.356Z,5.80
2019-04-29T06:26:14.473Z,5.93
2019-04-29T06:31:30.193Z,4.67
2019-04-29T06:36:46.963Z,5.40
2019-04-29T06:42:02.533Z,3.77
2019-04-29T06:47:18.484Z,5.53
2019-04-29T06:52:34.937Z,4.80
2019-04-29T06:57:50.670Z,7.00
2019-04-29T07:03:06.452Z,4.27
2019-04-29T07:08:23.705Z,3.57
2019-04-29T07:13:39.302Z,6.57
2019-04-29T07:18:55.242Z,3.80
2019-04-29T07:24:10.790Z,5.73
2019-04-29T07:29:30.772Z,5.00
2019-04-29T07:34:43.923Z,5.10
2019-04-29T07:40:03.694Z,6.63
2019-04-29T07:45:44.251Z,6.07
2019-04-29T07:51:04.240Z,5.73
2019-04-29T07:56:17.803Z,5.07
2019-04-29T08:01:33.406Z,8.20
2019-04-29T08:06:49.246Z,4.00
2019-04-29T08:12:05.905Z,9.47
2019-04-29T08:17:21.607Z,3.57
2019-04-29T08:22:37.490Z,7.53
2019-04-29T08:27:53.210Z,5.57
2019-04-29T08:33:11.923Z,5.13
2019-04-29T08:38:26.426Z,4.47
2019-04-29T08:44:15.666Z,4.50
2019-04-29T08:49:24.516Z,5.47
2019-04-29T08:54:40.568Z,7.40
2019-04-29T08:59:56.303Z,3.37
2019-04-29T09:05:13.352Z,5.03
2019-04-29T09:10:33.108Z,4.33
2019-04-29T09:15:46.905Z,6.07
2019-04-29T09:21:02.696Z,4.13
2019-04-29T09:26:33.415Z,4.13
2019-04-29T09:31:49.387Z,4.47
2019-04-29T09:37:05.210Z,6.50
2019-04-29T09:42:45.505Z,5.97
2019-04-29T09:48:00.616Z,5.13
2019-04-29T09:53:16.285Z,3.30
2019-04-29T09:58:31.743Z,2.97
2019-04-29T10:04:12.665Z,3.60
2019-04-29T10:09:28.306Z,5.03
2019-04-29T10:14:46.345Z,3.90
2019-04-29T10:20:08.185Z,6.80
2019-04-29T10:25:23.903Z,4.23
2019-04-29T10:30:40.143Z,4.70
2019-04-29T10:35:55.795Z,5.13
2019-04-29T10:41:23.933Z,5.77
2019-04-29T10:46:57.494Z,8.70
2019-04-29T10:52:13.566Z,5.87
2019-04-29T10:57:29.608Z,5.63
2019-04-29T11:02:49.286Z,5.10
2019-04-29T11:08:17.375Z,4.37
2019-04-29T11:13:33.158Z,4.23
2019-04-29T11:18:49.144Z,6.37
2019-04-29T11:24:20.651Z,3.70
2019-04-29T11:29:36.299Z,6.07
2019-04-29T11:35:01.423Z,3.23
2019-04-29T11:40:26.089Z,4.27
2019-04-29T11:45:40.397Z,2.50
2019-04-29T11:51:01.314Z,7.67
2019-04-29T11:56:18.626Z,4.53
2019-04-29T12:01:53.524Z,4.73
2019-04-29T12:07:10.025Z,4.77
2019-04-29T12:12:25.882Z,4.50
2019-04-29T12:17:57.231Z,3.93
2019-04-29T12:23:15.673Z,5.47
2019-04-29T12:28:30.835Z,4.20
2019-04-29T12:33:55.609Z,4.77
2019-04-29T12:39:42.815Z,2.43
2019-04-29T12:44:52.431Z,3.30
2019-04-29T12:50:08.817Z,4.37
2019-04-29T12:55:44.313Z,2.50
2019-04-29T13:00:56.163Z,3.70
2019-04-29T13:06:23.256Z,4.43
2019-04-29T13:11:45.455Z,5.37
2019-04-29T13:17:13.636Z,2.37
2019-04-29T13:22:18.217Z,3.50
2019-04-29T13:27:33.858Z,3.20
2019-04-29T13:32:49.681Z,4.90
2019-04-29T13:38:05.784Z,2.67
2019-04-29T13:43:25.849Z,2.00
2019-04-29T13:49:06.897Z,5.23
2019-04-29T13:54:16.532Z,2.20
2019-04-29T13:59:42.061Z,2.77
2019-04-29T14:05:00.146Z,3.70
2019-04-29T14:10:17.841Z,3.47
2019-04-29T14:15:38.315Z,3.27
2019-04-29T14:20:53.169Z,4.57
2019-04-29T14:26:08.877Z,2.57
2019-04-29T14:31:24.921Z,3.07
2019-04-29T14:36:40.957Z,4.10
2019-04-29T14:42:02.169Z,4.77
2019-04-29T14:47:34.044Z,3.63
2019-04-29T14:52:50.718Z,4.77
2019-04-29T14:58:07.003Z,3.90
2019-04-29T15:03:23.913Z,2.37
2019-04-29T15:08:39.897Z,2.87
2019-04-29T15:14:01.574Z,2.33
2019-04-29T15:19:34.718Z,3.93
2019-04-29T15:24:50.466Z,2.47
2019-04-29T15:30:08.959Z,3.33
2019-04-29T15:35:25.573Z,3.67
2019-04-29T15:40:42.995Z,4.80
2019-04-29T15:45:59.147Z,5.40
2019-04-29T15:51:14.954Z,5.50
2019-04-29T15:56:33.779Z,5.03
2019-04-29T16:01:49.326Z,4.13
2019-04-29T16:07:22.271Z,3.33
2019-04-29T16:12:45.414Z,5.57
2019-04-29T16:18:05.076Z,5.10
2019-04-29T16:23:18.325Z,3.27
2019-04-29T16:28:39.959Z,3.93
2019-04-29T16:33:54.543Z,2.60
2019-04-29T16:39:10.218Z,3.93
2019-04-29T16:44:35.758Z,2.70
2019-04-29T16:49:45.672Z,2.77
2019-04-29T16:55:04.179Z,3.40
2019-04-29T17:00:22.942Z,2.90
2019-04-29T17:05:38.650Z,3.90
2019-04-29T17:11:12.133Z,2.60
2019-04-29T17:16:25.222Z,4.00
2019-04-29T17:21:44.274Z,4.57
2019-04-29T17:27:18.890Z,3.20
2019-04-29T17:32:48.498Z,5.77
2019-04-29T17:38:04.043Z,2.67
2019-04-29T17:43:45.200Z,3.27
2019-04-29T17:49:13.759Z,3.43
2019-04-29T17:54:34.901Z,3.60
2019-04-29T18:00:08.751Z,2.30
2019-04-29T18:05:52.201Z,4.57
2019-04-29T18:10:55.759Z,4.77
2019-04-29T18:16:19.034Z,4.27
2019-04-29T18:21:48.099Z,3.00
2019-04-29T18:27:07.095Z,6.40
2019-04-29T18:32:33.482Z,2.87
2019-04-29T18:37:40.903Z,3.63
2019-04-29T18:42:56.626Z,2.53
2019-04-29T18:48:17.033Z,2.37
2019-04-29T18:53:29.367Z,3.33
2019-04-29T18:58:46.819Z,4.10
2019-04-29T19:04:30.756Z,4.10
2019-04-29T19:09:47.378Z,3.90
2019-04-29T19:15:05.051Z,4.67
2019-04-29T19:20:22.268Z,2.70
2019-04-29T19:25:41.636Z,4.80
2019-04-29T19:31:02.902Z,5.23
2019-04-29T19:36:18.458Z,3.93
2019-04-29T19:41:31.264Z,5.77
2019-04-29T19:46:47.230Z,4.43
2019-04-29T19:52:03.201Z,5.23
2019-04-29T19:57:19.106Z,4.33
2019-04-29T20:08:06.072Z,3.73
2019-04-29T20:13:30.535Z,2.93
2019-04-29T20:19:01.550Z,4.23
2019-04-29T20:24:17.900Z,4.20
2019-04-29T20:29:34.383Z,5.30
2019-04-29T20:34:50.630Z,3.37
2019-04-29T20:40:07.744Z,4.43
2019-04-29T20:45:28.784Z,4.53
2019-04-29T20:50:47.716Z,3.97
2019-04-29T20:56:09.572Z,5.47
2019-04-29T21:01:29.850Z,3.97
2019-04-29T21:06:59.081Z,6.43
2019-04-29T21:12:20.619Z,6.00
2019-04-29T21:17:40.379Z,4.17
2019-04-29T21:22:59.323Z,2.97
2019-04-29T21:28:18.976Z,5.30
2019-04-29T21:33:35.495Z,4.37
2019-04-29T21:39:01.760Z,4.00
2019-04-29T21:44:19.400Z,5.40
2019-04-29T21:49:45.411Z,4.47
2019-04-29T21:55:00.970Z,4.30
2019-04-29T22:00:24.458Z,5.80
2019-04-29T22:05:41.394Z,4.53
2019-04-29T22:10:58.125Z,5.67
2019-04-29T22:16:15.829Z,5.50
2019-04-29T22:21:32.486Z,5.57
2019-04-29T22:26:48.232Z,5.43
2019-04-29T22:32:09.215Z,5.70
2019-04-29T22:37:22.907Z,7.40
2019-04-29T22:42:45.666Z,6.90
2019-04-29T22:48:14.209Z,5.93
2019-04-29T22:53:18.812Z,4.97
2019-04-29T22:58:35.084Z,5.10
2019-04-29T23:03:51.368Z,5.80
2019-04-29T23:09:12.057Z,6.27
2019-04-29T23:14:27.099Z,5.50
2019-04-29T23:19:46.498Z,7.40
2019-04-29T23:25:05.882Z,6.50
2019-04-29T23:30:27.347Z,6.60
2019-04-29T23:35:44.792Z,6.63
2019-04-29T23:41:00.882Z,6.93
2019-04-29T23:46:16.803Z,5.10
2019-04-29T23:51:34.255Z,7.03
2019-04-29T23:57:16.280Z,8.37
